createdAt,value
2023-02-18T04:44:30.695Z,50.53
2023-02-18T04:47:00.245Z,51.05
2023-02-18T04:49:29.852Z,52.25
2023-02-18T04:51:59.821Z,66.03
2023-02-18T04:54:29.432Z,53.63
2023-02-18T04:56:59.172Z,55.40
2023-02-18T04:59:28.930Z,50.80
2023-02-18T05:01:58.546Z,52.15
2023-02-18T05:04:28.291Z,48.47
2023-02-18T05:06:57.997Z,44.10
2023-02-18T05:09:27.698Z,46.03
2023-02-18T05:11:57.245Z,42.83
2023-02-18T05:14:26.917Z,44.45
2023-02-18T05:16:56.661Z,47.28
2023-02-18T05:19:26.256Z,50.90
2023-02-18T05:21:55.877Z,44.60
2023-02-18T05:24:25.530Z,45.55
2023-02-18T05:26:55.099Z,43.05
2023-02-18T05:29:24.779Z,46.67
2023-02-18T05:31:54.446Z,45.72
2023-02-18T05:34:24.131Z,46.47
2023-02-18T05:36:53.942Z,44.58
2023-02-18T05:39:23.488Z,45.75
2023-02-18T05:41:53.080Z,44.47
2023-02-18T05:44:32.242Z,43.20
2023-02-18T05:47:11.545Z,50.78
2023-02-18T05:49:42.989Z,41.42
2023-02-18T05:52:14.296Z,41.90
2023-02-18T05:54:43.940Z,45.75
2023-02-18T05:57:16.313Z,57.83
2023-02-18T05:59:45.993Z,44.33
2023-02-18T06:02:15.674Z,47.88
2023-02-18T06:04:45.276Z,47.97
2023-02-18T06:07:14.993Z,43.35
2023-02-18T06:09:44.607Z,48.17
2023-02-18T06:12:14.367Z,47.55
2023-02-18T06:14:44.630Z,44.20
2023-02-18T06:17:17.919Z,43.88
2023-02-18T06:19:48.093Z,45.88
2023-02-18T06:22:17.794Z,40.35
2023-02-18T06:24:47.498Z,45.90
2023-02-18T06:27:17.216Z,39.25
2023-02-18T06:29:46.883Z,39.08
2023-02-18T06:32:18.263Z,39.13
2023-02-18T06:34:47.944Z,42.38
2023-02-18T06:37:17.595Z,39.75
2023-02-18T06:39:47.216Z,42.97
2023-02-18T06:42:16.854Z,48.53
2023-02-18T06:44:46.617Z,38.45
2023-02-18T06:47:16.619Z,51.38
2023-02-18T06:49:46.237Z,46.85
2023-02-18T06:52:15.864Z,41.35
2023-02-18T06:54:45.578Z,41.50
2023-02-18T06:57:15.225Z,39.28
2023-02-18T06:59:44.915Z,45.38
2023-02-18T07:02:16.343Z,38.20
2023-02-18T07:04:47.670Z,40.70
2023-02-18T07:07:17.295Z,40.78
2023-02-18T07:09:47.048Z,37.88
2023-02-18T07:12:16.640Z,34.65
2023-02-18T07:14:46.257Z,38.00
2023-02-18T07:17:16.500Z,42.67
2023-02-18T07:19:46.100Z,37.30
2023-02-18T07:22:15.897Z,42.03
2023-02-18T07:24:47.202Z,35.30
2023-02-18T07:27:16.783Z,37.42
2023-02-18T07:29:46.432Z,35.75
2023-02-18T07:32:17.310Z,39.38
2023-02-18T07:34:47.125Z,32.35
2023-02-18T07:37:16.697Z,41.58
2023-02-18T07:39:48.104Z,34.28
2023-02-18T07:42:17.738Z,34.78
2023-02-18T07:44:47.368Z,37.28
2023-02-18T07:50:08.297Z,43.67
2023-02-18T07:52:37.902Z,39.42
2023-02-18T07:55:07.710Z,40.53
2023-02-18T07:57:56.975Z,33.63
2023-02-18T08:00:26.998Z,32.25
2023-02-18T08:02:56.643Z,37.33
2023-02-18T08:05:26.345Z,38.72
2023-02-18T08:07:55.926Z,45.45
2023-02-18T08:10:25.627Z,37.88
2023-02-18T08:12:55.295Z,33.67
2023-02-18T08:15:24.897Z,45.45
2023-02-18T08:17:55.327Z,37.83
2023-02-18T08:20:25.120Z,38.50
2023-02-18T08:22:54.691Z,33.45
2023-02-18T08:25:29.422Z,36.33
2023-02-18T08:27:59.535Z,33.13
2023-02-18T08:30:29.542Z,34.28
2023-02-18T08:32:59.335Z,35.10
2023-02-18T08:35:28.997Z,34.10
2023-02-18T08:37:58.690Z,35.35
2023-02-18T08:40:28.383Z,37.50
2023-02-18T08:42:58.025Z,35.05
2023-02-18T08:45:27.773Z,33.33
2023-02-18T08:48:16.853Z,40.28
2023-02-18T08:50:48.071Z,37.15
2023-02-18T08:53:18.444Z,33.60
2023-02-18T08:55:48.158Z,29.38
2023-02-18T08:58:19.053Z,30.63
2023-02-18T09:00:49.259Z,36.53
2023-02-18T09:03:19.204Z,32.20
2023-02-18T09:05:48.964Z,31.33
2023-02-18T09:08:18.495Z,32.42
2023-02-18T09:10:48.045Z,34.35
2023-02-18T09:13:17.710Z,44.78
2023-02-18T09:15:47.367Z,29.95
2023-02-18T09:18:16.999Z,37.63
2023-02-18T09:20:46.778Z,30.90
2023-02-18T09:23:17.410Z,32.22
2023-02-18T09:25:47.004Z,33.15
2023-02-18T09:28:16.706Z,31.23
2023-02-18T09:30:46.446Z,37.33
2023-02-18T09:33:16.344Z,31.80
2023-02-18T09:35:47.897Z,35.88
2023-02-18T09:38:20.045Z,38.03
2023-02-18T09:40:55.585Z,36.28
2023-02-18T09:43:35.647Z,27.73
2023-02-18T09:46:09.310Z,29.70
2023-02-18T09:48:40.444Z,30.17
2023-02-18T09:51:16.704Z,30.80
2023-02-18T09:53:48.675Z,27.30
2023-02-18T09:56:31.186Z,29.45
2023-02-18T09:59:05.958Z,31.38
2023-02-18T10:01:42.178Z,30.08
2023-02-18T10:04:20.765Z,33.13
2023-02-18T10:06:53.994Z,27.23
2023-02-18T10:09:35.785Z,28.85
2023-02-18T10:12:26.447Z,31.48
2023-02-18T10:14:58.959Z,33.42
2023-02-18T10:17:32.409Z,25.92
2023-02-18T10:20:06.172Z,28.30
2023-02-18T10:22:39.666Z,28.27
2023-02-18T10:25:09.803Z,30.52
2023-02-18T10:27:42.966Z,27.42
2023-02-18T10:30:38.132Z,28.50
2023-02-18T10:33:41.351Z,31.00
2023-02-18T10:36:50.052Z,27.55
2023-02-18T10:39:35.304Z,26.00
2023-02-18T10:42:44.036Z,31.58
2023-02-18T10:45:45.725Z,28.20
2023-02-18T10:48:40.016Z,47.45
2023-02-18T10:51:25.296Z,33.05
2023-02-18T10:53:56.522Z,41.80
2023-02-18T10:56:42.889Z,34.30
2023-02-18T10:59:21.958Z,38.75
2023-02-18T11:02:06.817Z,43.28
2023-02-18T11:04:47.750Z,31.65
2023-02-18T11:07:32.000Z,32.15
2023-02-18T11:10:04.033Z,41.55
2023-02-18T11:12:51.250Z,85.47
2023-02-18T11:15:25.995Z,47.97
2023-02-18T11:17:58.915Z,35.60
2023-02-18T11:20:34.084Z,38.17
2023-02-18T11:23:23.816Z,35.38
2023-02-18T11:26:09.289Z,47.80
2023-02-18T11:28:50.745Z,48.33
2023-02-18T11:31:27.451Z,51.00
2023-02-18T11:34:01.612Z,44.38
2023-02-18T11:36:35.247Z,45.00
2023-02-18T11:39:29.396Z,45.80
2023-02-18T11:42:03.196Z,45.95
2023-02-18T11:44:38.039Z,50.83
2023-02-18T11:47:22.464Z,46.65
2023-02-18T11:50:24.254Z,41.80
2023-02-18T11:52:56.473Z,45.05
2023-02-18T11:55:32.708Z,41.13
2023-02-18T11:58:10.370Z,49.13
2023-02-18T12:00:53.512Z,42.60
2023-02-18T12:04:02.431Z,41.00
2023-02-18T12:06:55.496Z,45.75
2023-02-18T12:09:38.676Z,45.60
2023-02-18T12:12:39.398Z,45.70
2023-02-18T12:15:11.859Z,48.25
2023-02-18T12:18:14.449Z,46.80
2023-02-18T12:21:01.557Z,46.00
2023-02-18T12:23:54.553Z,42.57
2023-02-18T12:26:49.614Z,51.00
2023-02-18T12:29:58.455Z,51.40
2023-02-18T12:33:07.199Z,58.25
2023-02-18T12:36:04.174Z,50.22
2023-02-18T12:39:13.625Z,53.25
2023-02-18T12:42:16.378Z,48.55
2023-02-18T12:45:25.708Z,43.97
2023-02-18T12:48:34.691Z,50.97
2023-02-18T12:51:43.419Z,50.33
2023-02-18T12:54:53.239Z,54.38
2023-02-18T12:57:41.599Z,53.63
2023-02-18T13:00:45.357Z,46.35
2023-02-18T13:03:54.118Z,55.28
2023-02-18T13:06:47.264Z,51.90
2023-02-18T13:09:43.394Z,49.80
2023-02-18T13:12:45.976Z,55.72
2023-02-18T13:15:40.136Z,55.97
2023-02-18T13:18:24.020Z,53.95
2023-02-18T13:21:00.479Z,61.67
2023-02-18T13:23:37.952Z,55.20
2023-02-18T13:26:12.097Z,59.10
2023-02-18T13:29:12.335Z,52.78
2023-02-18T13:32:15.077Z,61.40
2023-02-18T13:35:06.819Z,72.25
2023-02-18T13:38:11.285Z,60.65
2023-02-18T13:40:44.736Z,62.72
2023-02-18T13:43:35.738Z,67.35
2023-02-18T13:46:25.644Z,60.05
2023-02-18T13:49:07.613Z,66.63
2023-02-18T13:51:50.522Z,65.55
2023-02-18T13:54:31.469Z,61.60
2023-02-18T13:57:21.414Z,67.82
2023-02-18T14:00:04.519Z,64.75
2023-02-18T14:02:38.972Z,67.95
2023-02-18T14:05:25.870Z,70.05
2023-02-18T14:08:17.652Z,61.30
2023-02-18T14:11:26.724Z,73.65
2023-02-18T14:14:36.540Z,88.38
2023-02-18T14:17:32.687Z,82.47
2023-02-18T14:20:46.092Z,77.93
2023-02-18T14:23:43.172Z,67.93
2023-02-18T14:26:33.711Z,68.50
2023-02-18T14:29:13.055Z,76.38
2023-02-18T14:31:59.429Z,63.58
2023-02-18T14:34:51.584Z,67.60
2023-02-18T14:38:00.481Z,60.88
2023-02-18T14:41:09.594Z,65.18
2023-02-18T14:44:12.640Z,65.63
2023-02-18T14:47:13.302Z,64.00
2023-02-18T14:49:52.493Z,63.33
2023-02-18T14:52:51.392Z,66.43
2023-02-18T14:55:34.472Z,61.55
2023-02-18T14:58:10.480Z,58.88
2023-02-18T15:00:45.435Z,67.13
2023-02-18T15:03:21.003Z,59.28
2023-02-18T15:05:53.280Z,60.15
2023-02-18T15:08:27.869Z,62.55
2023-02-18T15:11:08.493Z,53.85
2023-02-18T15:13:47.259Z,62.50
2023-02-18T15:16:35.678Z,65.43
2023-02-18T15:19:10.743Z,60.55
2023-02-18T15:21:47.945Z,60.65
2023-02-18T15:24:40.600Z,51.97
2023-02-18T15:27:32.277Z,51.78
2023-02-18T15:30:32.589Z,57.22
2023-02-18T15:33:03.402Z,57.08
2023-02-18T15:35:35.062Z,58.88
2023-02-18T15:38:06.258Z,64.07
2023-02-18T15:40:39.954Z,59.88
2023-02-18T15:43:13.303Z,55.22
2023-02-18T15:45:46.827Z,63.55
2023-02-18T15:48:46.873Z,57.78
2023-02-18T15:51:23.855Z,60.47
2023-02-18T15:53:58.108Z,57.67
2023-02-18T15:56:39.739Z,61.45
2023-02-18T15:59:32.239Z,64.50
2023-02-18T16:02:26.262Z,66.80
2023-02-18T16:05:05.154Z,58.10
2023-02-18T16:07:51.291Z,58.38
2023-02-18T16:10:38.666Z,65.43
2023-02-18T16:13:08.585Z,62.97
2023-02-18T16:15:43.675Z,59.15
2023-02-18T16:18:43.656Z,71.70
2023-02-18T16:21:32.236Z,61.00
2023-02-18T16:24:04.274Z,65.00
2023-02-18T16:26:45.027Z,63.90
2023-02-18T16:29:18.466Z,61.78
2023-02-18T16:31:48.166Z,63.15
2023-02-18T16:34:19.304Z,65.97
2023-02-18T16:37:08.710Z,80.55
2023-02-18T16:39:38.448Z,59.33
2023-02-18T16:42:17.873Z,60.72
2023-02-18T16:44:49.734Z,52.17
2023-02-18T16:47:20.298Z,62.80
2023-02-18T16:49:53.292Z,64.28
2023-02-18T16:52:22.908Z,57.95
2023-02-18T16:54:55.085Z,53.40
2023-02-18T16:57:25.800Z,60.38
2023-02-18T16:59:55.730Z,59.92
2023-02-18T17:02:25.545Z,57.10
2023-02-18T17:04:59.103Z,55.08
2023-02-18T17:07:28.818Z,55.10
2023-02-18T17:09:58.492Z,51.03
2023-02-18T17:12:28.608Z,58.13
2023-02-18T17:14:58.233Z,56.35
2023-02-18T17:17:29.577Z,56.13
2023-02-18T17:19:59.380Z,68.82
2023-02-18T17:22:28.982Z,54.97
2023-02-18T17:24:58.584Z,53.20
2023-02-18T17:27:28.392Z,62.90
2023-02-18T17:29:58.143Z,61.20
2023-02-18T17:32:28.854Z,66.75
2023-02-18T17:34:58.536Z,62.00
2023-02-18T17:37:28.194Z,70.95
2023-02-18T17:39:58.107Z,61.25
2023-02-18T17:42:27.855Z,64.70
2023-02-18T17:44:57.589Z,65.70
2023-02-18T17:47:27.386Z,65.03
2023-02-18T17:49:57.006Z,69.05
2023-02-18T17:52:33.237Z,62.70
2023-02-18T17:55:02.870Z,59.80
2023-02-18T17:57:32.538Z,64.25
2023-02-18T18:00:02.541Z,67.82
2023-02-18T18:02:32.186Z,67.15
2023-02-18T18:05:01.912Z,71.15
2023-02-18T18:07:31.775Z,73.85
2023-02-18T18:10:01.434Z,65.05
2023-02-18T18:12:32.384Z,72.70
2023-02-18T18:15:04.544Z,68.93
2023-02-18T18:17:34.168Z,65.78
2023-02-18T18:20:03.921Z,66.50
2023-02-18T18:22:33.695Z,75.20
2023-02-18T18:25:03.376Z,64.07
2023-02-18T18:27:33.142Z,67.38
2023-02-18T18:30:03.510Z,60.83
2023-02-18T18:32:33.111Z,60.28
2023-02-18T18:35:02.760Z,66.88
2023-02-18T18:37:32.446Z,65.80
2023-02-18T18:40:02.037Z,64.03
2023-02-18T18:42:31.662Z,61.53
2023-02-18T18:45:01.357Z,69.05
2023-02-18T18:47:31.017Z,61.22
2023-02-18T18:50:00.635Z,62.63
2023-02-18T18:52:30.504Z,70.57
2023-02-18T18:55:00.141Z,59.58
2023-02-18T18:57:30.004Z,59.95
2023-02-18T19:00:00.388Z,62.47
2023-02-18T19:02:30.388Z,65.40
2023-02-18T19:05:00.041Z,64.72
2023-02-18T19:07:29.779Z,76.82
2023-02-18T19:09:59.525Z,70.70
2023-02-18T19:12:29.193Z,69.85
2023-02-18T19:14:58.853Z,67.50
2023-02-18T19:17:28.515Z,61.53
2023-02-18T19:19:58.350Z,63.30
2023-02-18T19:22:28.114Z,63.83
2023-02-18T19:24:57.821Z,77.97
2023-02-18T19:27:27.514Z,73.95
2023-02-18T19:29:58.091Z,72.72
2023-02-18T19:32:27.723Z,73.50
2023-02-18T19:34:57.341Z,66.40
2023-02-18T19:37:27.059Z,63.50
2023-02-18T19:39:56.724Z,68.78
2023-02-18T19:42:26.483Z,67.35
2023-02-18T19:44:57.522Z,74.63
2023-02-18T19:47:29.187Z,68.15
2023-02-18T19:50:01.511Z,72.68
2023-02-18T19:52:31.271Z,64.22
2023-02-18T19:55:01.022Z,71.57
2023-02-18T19:57:30.758Z,69.85
2023-02-18T20:00:00.475Z,66.60
2023-02-18T20:02:30.344Z,65.72
2023-02-18T20:05:03.451Z,68.68
2023-02-18T20:07:33.488Z,72.68
2023-02-18T20:10:03.108Z,69.97
2023-02-18T20:12:32.844Z,76.88
2023-02-18T20:15:02.558Z,72.30
2023-02-18T20:17:32.282Z,70.68
2023-02-18T20:20:02.159Z,74.18
2023-02-18T20:22:31.798Z,68.82
2023-02-18T20:25:02.055Z,72.32
2023-02-18T20:27:31.776Z,71.32
2023-02-18T20:30:01.754Z,75.63
2023-02-18T20:32:31.825Z,73.63
2023-02-18T20:35:02.291Z,74.10
2023-02-18T20:37:32.293Z,73.53
2023-02-18T20:40:01.932Z,77.45
2023-02-18T20:42:31.590Z,71.22
2023-02-18T20:45:01.340Z,65.63
2023-02-18T20:47:31.049Z,68.50
2023-02-18T20:50:00.767Z,68.03
2023-02-18T20:52:31.526Z,64.20
2023-02-18T20:55:02.669Z,68.57
2023-02-18T20:57:32.341Z,69.53
2023-02-18T21:00:01.984Z,64.30
2023-02-18T21:02:32.481Z,71.57
2023-02-18T21:05:02.176Z,76.32
2023-02-18T21:07:32.097Z,78.68
2023-02-18T21:10:01.801Z,71.70
2023-02-18T21:12:31.451Z,73.15
2023-02-18T21:15:01.058Z,78.75
2023-02-18T21:17:30.835Z,82.22
2023-02-18T21:20:02.470Z,72.70
2023-02-18T21:22:32.085Z,80.82
2023-02-18T21:25:02.152Z,81.03
2023-02-18T21:27:31.735Z,73.95
2023-02-18T21:30:01.944Z,77.78
2023-02-18T21:32:31.645Z,78.32
2023-02-18T21:35:01.308Z,78.32
2023-02-18T21:37:31.049Z,73.95
2023-02-18T21:40:01.971Z,71.95
2023-02-18T21:42:32.345Z,74.38
2023-02-18T21:45:02.662Z,75.22
2023-02-18T21:47:33.360Z,79.55
2023-02-18T21:50:03.058Z,78.60
2023-02-18T21:52:33.961Z,72.25
2023-02-18T21:55:03.713Z,65.72
2023-02-18T21:57:34.024Z,75.65
2023-02-18T22:00:14.715Z,71.40
2023-02-18T22:02:49.070Z,69.40
2023-02-18T22:05:18.681Z,70.45
2023-02-18T22:07:48.538Z,77.55
2023-02-18T22:10:18.147Z,76.53
2023-02-18T22:12:47.840Z,80.07
2023-02-18T22:15:17.529Z,69.72
2023-02-18T22:17:47.186Z,83.28
2023-02-18T22:20:16.999Z,70.68
2023-02-18T22:22:46.605Z,72.07
2023-02-18T22:25:16.278Z,72.70
2023-02-18T22:27:46.006Z,73.95
2023-02-18T22:30:15.758Z,77.28
2023-02-18T22:32:45.479Z,75.35
2023-02-18T22:35:16.646Z,76.43
2023-02-18T22:37:46.573Z,76.57
2023-02-18T22:40:16.268Z,73.75
2023-02-18T22:42:45.888Z,73.15
2023-02-18T22:45:15.562Z,74.38
2023-02-18T22:47:45.557Z,79.53
2023-02-18T22:50:15.213Z,78.15
2023-02-18T22:52:44.996Z,75.88
2023-02-18T22:55:14.755Z,71.97
2023-02-18T22:57:44.473Z,83.20
2023-02-18T23:00:14.972Z,82.57
2023-02-18T23:02:44.762Z,81.38
2023-02-18T23:05:15.105Z,71.03
2023-02-18T23:07:44.698Z,80.15
2023-02-18T23:10:14.643Z,72.97
2023-02-18T23:12:44.193Z,77.70
2023-02-18T23:15:14.268Z,74.93
2023-02-18T23:17:43.963Z,76.15
2023-02-18T23:20:13.523Z,74.82
2023-02-18T23:22:43.774Z,82.07
2023-02-18T23:25:13.824Z,73.90
2023-02-18T23:27:43.334Z,78.97
2023-02-18T23:30:13.652Z,79.25
2023-02-18T23:32:43.341Z,91.07
2023-02-18T23:37:52.994Z,83.43
2023-02-18T23:40:22.769Z,91.90
2023-02-18T23:42:55.077Z,87.40
2023-02-18T23:45:25.156Z,86.97
2023-02-18T23:47:54.815Z,87.93
2023-02-18T23:50:24.597Z,89.80
2023-02-18T23:52:55.116Z,89.00
2023-02-18T23:55:24.691Z,84.32
2023-02-18T23:57:54.291Z,95.85
